Time;durP1;ratioP1;P1;durP2;ratioP2;P2;SDS_P1;SDS_P2;PMS_P1;PMS_P2;Temp;Humidity;BMP_temperature;BMP_pressure;BME280_temperature;BME280_humidity;BME280_pressure;Samples;Min_cycle;Max_cycle;Signal;HPM_P1;HPM_P2
2023/10/31 00:04:53;;;;;;;4.30;1.60;;;;;;;15.19;80.61;97314.06;224381;1289;22563;-83
2023/10/31 00:09:57;;;;;;;4.10;1.70;;;;;;;15.18;80.37;97308.45;224415;1292;22543;-83
2023/10/31 00:15:00;;;;;;;3.70;1.60;;;;;;;15.17;80.12;97292.54;224439;1292;22552;-85
2023/10/31 00:20:05;;;;;;;2.70;1.30;;;;;;;15.18;79.96;97277.91;224478;1292;22580;-85
2023/10/31 00:25:07;;;;;;;4.70;1.30;;;;;;;15.23;79.63;97273.23;224465;1289;22567;-84
2023/10/31 00:30:12;;;;;;;2.90;1.40;;;;;;;15.31;79.38;97262.69;224444;1292;23521;-84
2023/10/31 00:35:16;;;;;;;3.10;1.20;;;;;;;15.43;78.96;97253.78;224379;1292;22653;-85
2023/10/31 00:40:23;;;;;;;3.10;1.10;;;;;;;15.59;78.36;97245.59;224538;1281;22617;-84
2023/10/31 00:45:28;;;;;;;2.20;1.10;;;;;;;15.72;77.75;97237.21;224460;1285;23428;-84
2023/10/31 00:50:33;;;;;;;5.20;1.20;;;;;;;15.87;77.22;97231.73;224449;1286;22560;-86
2023/10/31 00:55:36;;;;;;;3.90;1.30;;;;;;;15.97;76.70;97209.52;224382;1291;23257;-85
2023/10/31 01:00:43;;;;;;;3.40;1.60;;;;;;;16.05;76.12;97201.98;224449;1292;22600;-86
2023/10/31 01:05:45;;;;;;;1.70;1.20;;;;;;;16.14;75.66;97174.71;223975;1292;22727;-82
2023/10/31 01:10:49;;;;;;;3.50;1.10;;;;;;;16.21;75.12;97160.92;224449;1289;22541;-85
2023/10/31 01:15:56;;;;;;;2.40;1.10;;;;;;;16.32;74.77;97152.79;224409;1292;22556;-86
2023/10/31 01:21:01;;;;;;;3.90;1.30;;;;;;;16.45;74.09;97140.60;224411;1286;22544;-85
2023/10/31 01:26:03;;;;;;;3.20;1.30;;;;;;;16.53;73.47;97130.36;224438;1291;22555;-86
2023/10/31 01:31:18;;;;;;;2.30;1.10;;;;;;;16.60;72.87;97122.32;224502;1289;24240;-85
2023/10/31 01:36:28;;;;;;;2.50;1.30;;;;;;;16.66;72.47;97122.39;224243;1292;25659;-84
2023/10/31 01:41:30;;;;;;;5.60;1.10;;;;;;;16.69;72.00;97129.21;224457;1289;22577;-84
2023/10/31 01:46:36;;;;;;;1.30;1.10;;;;;;;16.70;71.56;97118.50;223941;1276;278136;-84
2023/10/31 01:51:44;;;;;;;4.50;1.50;;;;;;;16.73;71.24;97099.25;224104;1292;23108;-84
2023/10/31 01:56:50;;;;;;;3.20;1.30;;;;;;;16.77;70.83;97092.69;224107;1270;22589;-84
2023/10/31 02:01:56;;;;;;;4.10;1.10;;;;;;;16.87;70.31;97089.52;224390;1289;22553;-84
2023/10/31 02:07:00;;;;;;;2.70;1.00;;;;;;;16.98;70.10;97086.02;224276;1292;22536;-86
2023/10/31 02:12:04;;;;;;;2.20;1.00;;;;;;;17.07;69.61;97081.67;224450;1289;22540;-82
2023/10/31 02:17:06;;;;;;;5.20;1.60;;;;;;;17.09;69.31;97074.98;224370;1292;22570;-84
2023/10/31 02:22:09;;;;;;;4.40;2.00;;;;;;;17.10;68.94;97063.45;224376;1286;23380;-83
2023/10/31 02:27:12;;;;;;;2.90;1.10;;;;;;;17.12;68.93;97053.10;224408;1286;22682;-85
2023/10/31 02:32:18;;;;;;;3.50;1.20;;;;;;;17.13;68.65;97046.38;224433;1291;22563;-85
2023/10/31 02:37:42;;;;;;;3.40;1.10;;;;;;;17.11;68.62;97043.50;224320;1292;22567;-83
2023/10/31 02:42:46;;;;;;;2.40;1.30;;;;;;;17.10;68.43;97047.92;224415;1286;22624;-83
2023/10/31 02:47:49;;;;;;;1.90;1.10;;;;;;;17.11;68.04;97044.88;224480;1289;24237;-84
2023/10/31 02:52:51;;;;;;;2.80;1.10;;;;;;;17.18;67.96;97041.62;224523;1292;22600;-83
2023/10/31 02:57:54;;;;;;;3.30;1.10;;;;;;;17.22;67.67;97040.10;224448;1286;22581;-84
2023/10/31 03:02:57;;;;;;;3.80;1.60;;;;;;;17.28;67.49;97030.67;224398;1292;25254;-84
2023/10/31 03:08:00;;;;;;;2.20;1.10;;;;;;;17.36;67.03;97020.88;224360;1292;22549;-84
2023/10/31 03:13:03;;;;;;;3.60;1.40;;;;;;;17.42;66.83;97013.15;224378;1286;26009;-84
2023/10/31 03:18:06;;;;;;;3.50;1.40;;;;;;;17.46;66.92;97016.66;224441;1292;22560;-83
2023/10/31 03:23:09;;;;;;;3.00;1.50;;;;;;;17.46;66.87;97020.98;224380;1283;24926;-85
2023/10/31 03:28:20;;;;;;;4.00;1.50;;;;;;;17.47;66.56;97014.09;224248;1291;22966;-84
2023/10/31 03:33:23;;;;;;;3.80;1.60;;;;;;;17.45;66.61;97001.98;224405;1292;22546;-84
2023/10/31 03:38:28;;;;;;;4.50;1.60;;;;;;;17.45;66.44;96998.66;224445;1292;22513;-84
2023/10/31 03:43:32;;;;;;;3.80;1.90;;;;;;;17.41;66.52;96979.14;224511;1291;22552;-84
2023/10/31 03:48:36;;;;;;;6.70;1.70;;;;;;;17.39;66.40;96972.41;224531;1291;25537;-85
2023/10/31 03:53:38;;;;;;;4.00;1.50;;;;;;;17.41;66.18;96965.52;224481;1291;24422;-83
2023/10/31 03:58:52;;;;;;;6.50;1.80;;;;;;;17.36;66.27;96959.90;224427;1291;22569;-83
2023/10/31 04:03:55;;;;;;;3.40;1.70;;;;;;;17.27;66.06;96948.15;224346;1292;22569;-85
2023/10/31 04:08:58;;;;;;;6.10;2.50;;;;;;;17.23;66.11;96945.11;224467;1286;22563;-83
2023/10/31 04:14:03;;;;;;;3.60;1.70;;;;;;;17.20;66.36;96941.30;224551;1292;22539;-84
2023/10/31 04:19:11;;;;;;;3.10;1.70;;;;;;;17.16;66.45;96939.98;224453;1289;22592;-85
2023/10/31 04:24:14;;;;;;;4.00;1.80;;;;;;;17.15;66.53;96936.58;224409;1289;22541;-84
2023/10/31 04:29:34;;;;;;;3.40;1.80;;;;;;;17.15;66.38;96944.48;224506;1292;22540;-85
2023/10/31 04:34:36;;;;;;;3.40;1.70;;;;;;;17.11;66.38;96949.23;224221;1292;22559;-85
2023/10/31 04:39:40;;;;;;;3.80;1.50;;;;;;;17.06;66.38;96952.42;224552;1289;22619;-85
2023/10/31 04:44:42;;;;;;;4.40;1.70;;;;;;;17.05;66.33;96950.52;224421;1292;22554;-85
2023/10/31 04:49:45;;;;;;;3.20;1.80;;;;;;;17.05;66.29;96952.59;224391;1291;22580;-85
2023/10/31 04:54:47;;;;;;;4.00;2.00;;;;;;;17.07;66.25;96951.98;224352;1292;22564;-84
2023/10/31 04:59:53;;;;;;;4.10;1.90;;;;;;;17.06;66.32;96949.81;224420;1292;22552;-83
2023/10/31 05:04:57;;;;;;;4.00;1.90;;;;;;;17.05;66.37;96948.91;224233;1292;22601;-83
2023/10/31 05:10:01;;;;;;;3.30;1.80;;;;;;;17.04;66.37;96949.45;224536;1286;25222;-85
2023/10/31 05:15:05;;;;;;;4.50;2.30;;;;;;;17.03;66.33;96951.74;224349;1292;23011;-83
2023/10/31 05:20:11;;;;;;;7.20;2.00;;;;;;;17.01;66.29;96956.17;224388;1292;22543;-84
2023/10/31 05:25:14;;;;;;;4.50;2.10;;;;;;;16.98;66.30;96958.11;224352;1286;22657;-82
2023/10/31 05:30:29;;;;;;;3.90;2.10;;;;;;;16.93;66.42;96963.78;224561;1289;22653;-85
2023/10/31 05:35:34;;;;;;;5.10;2.30;;;;;;;16.89;66.22;96968.77;224369;1292;22556;-83
2023/10/31 05:40:37;;;;;;;4.70;2.00;;;;;;;16.86;66.30;96962.48;224455;1290;22556;-83
2023/10/31 05:45:39;;;;;;;7.00;2.60;;;;;;;16.83;66.24;96966.11;224428;1291;22575;-82
2023/10/31 05:50:45;;;;;;;4.10;2.00;;;;;;;16.84;66.24;96959.83;224518;1286;22539;-79
2023/10/31 05:55:51;;;;;;;3.00;1.70;;;;;;;16.85;65.84;96961.48;224441;1289;22594;-83
2023/10/31 06:00:54;;;;;;;4.60;1.90;;;;;;;16.96;65.17;96974.71;224494;1289;22559;-81
2023/10/31 06:05:56;;;;;;;4.20;1.80;;;;;;;17.00;65.33;96991.40;224417;1291;22547;-84
2023/10/31 06:11:00;;;;;;;3.40;1.80;;;;;;;17.08;64.80;97004.55;224454;1292;22540;-83
2023/10/31 06:16:05;;;;;;;3.40;1.80;;;;;;;17.14;64.71;97005.81;224424;1291;25465;-83
2023/10/31 06:21:10;;;;;;;7.50;2.30;;;;;;;17.18;64.39;97014.77;224394;1289;22549;-81
2023/10/31 06:26:12;;;;;;;4.10;1.70;;;;;;;17.28;64.07;97029.98;224533;1286;22565;-84
2023/10/31 06:31:16;;;;;;;3.10;1.40;;;;;;;17.43;63.86;97033.02;224448;1292;24911;-82
2023/10/31 06:36:18;;;;;;;3.00;1.20;;;;;;;17.54;64.00;97040.43;224439;1289;23280;-83
2023/10/31 06:41:21;;;;;;;4.90;1.30;;;;;;;17.59;64.01;97042.23;224350;1292;22581;-84
2023/10/31 06:46:23;;;;;;;6.20;1.90;;;;;;;17.56;64.25;97047.84;224328;1287;22552;-84
2023/10/31 06:51:26;;;;;;;4.60;1.40;;;;;;;17.55;63.86;97058.05;224171;1285;22546;-83
2023/10/31 06:56:29;;;;;;;5.50;1.80;;;;;;;17.52;63.71;97056.02;224201;1280;22527;-81
2023/10/31 07:01:32;;;;;;;7.20;3.10;;;;;;;17.51;63.03;97046.73;224223;1277;22555;-80
2023/10/31 07:06:34;;;;;;;3.10;1.70;;;;;;;17.47;63.74;97067.12;223871;1273;25435;-83
2023/10/31 07:11:37;;;;;;;6.70;1.90;;;;;;;17.39;63.56;97064.58;224069;1279;22560;-83
2023/10/31 07:16:42;;;;;;;3.40;1.80;;;;;;;17.35;63.35;97066.42;224278;1273;22989;-84
2023/10/31 07:21:45;;;;;;;4.10;1.60;;;;;;;17.29;63.76;97072.70;224080;1273;22660;-80
2023/10/31 07:26:51;;;;;;;4.20;2.30;;;;;;;17.20;63.81;97075.92;224437;1285;24260;-87
2023/10/31 07:32:23;;;;;;;3.10;1.60;;;;;;;17.15;63.95;97078.52;224035;1280;22562;-86
2023/10/31 07:37:39;;;;;;;2.60;1.90;;;;;;;17.07;64.16;97098.96;224238;1277;22557;-88
2023/10/31 07:43:02;;;;;;;4.10;1.90;;;;;;;17.01;64.50;97107.30;224180;1285;23164;-88
2023/10/31 07:48:14;;;;;;;4.50;2.20;;;;;;;16.93;64.65;97120.88;223922;1280;22800;-87
2023/10/31 07:53:37;;;;;;;4.40;2.00;;;;;;;16.83;64.30;97136.95;223851;1272;22564;-86
2023/10/31 07:58:42;;;;;;;2.70;1.90;;;;;;;16.75;64.32;97150.08;223847;1287;24349;-85
2023/10/31 08:04:19;;;;;;;;;;;;;;;;;;;;;
2023/10/31 08:09:40;;;;;;;4.30;2.40;;;;;;;16.60;64.45;97163.54;224083;1291;22569;-87
2023/10/31 08:14:47;;;;;;;3.70;2.50;;;;;;;16.54;64.76;97175.80;224040;1292;22597;-86
2023/10/31 08:19:59;;;;;;;4.20;2.70;;;;;;;16.48;65.08;97188.27;224094;1291;22562;-85
2023/10/31 08:25:12;;;;;;;3.60;2.50;;;;;;;16.44;65.24;97192.80;224120;1292;24413;-88
2023/10/31 08:30:21;;;;;;;7.40;2.80;;;;;;;16.39;65.76;97208.08;223922;1292;24722;-87
2023/10/31 08:35:59;;;;;;;5.00;2.90;;;;;;;16.32;65.92;97222.99;223811;1291;22556;-87
2023/10/31 08:41:22;;;;;;;6.30;3.10;;;;;;;16.22;66.67;97224.45;222471;1279;22553;-85
2023/10/31 08:46:51;;;;;;;5.30;3.00;;;;;;;16.11;67.95;97232.70;221993;1304;22675;-88
2023/10/31 08:52:04;;;;;;;6.40;3.40;;;;;;;15.96;68.96;97238.12;221674;1288;22585;-86
2023/10/31 08:57:15;;;;;;;4.70;3.00;;;;;;;15.86;69.80;97242.08;222084;1283;22585;-84
2023/10/31 09:02:24;;;;;;;5.40;3.10;;;;;;;15.87;70.28;97245.02;222898;1290;22589;-85
2023/10/31 09:07:48;;;;;;;4.40;2.90;;;;;;;15.86;70.58;97254.02;224312;1279;22740;-84
2023/10/31 09:12:53;;;;;;;5.70;2.80;;;;;;;15.86;71.26;97251.52;224247;1277;25432;-83
2023/10/31 09:17:59;;;;;;;6.50;3.00;;;;;;;15.81;71.87;97271.45;224216;1292;22574;-84
2023/10/31 09:23:02;;;;;;;4.90;3.20;;;;;;;15.72;72.19;97278.01;224356;1288;22573;-85
2023/10/31 09:28:06;;;;;;;5.00;2.70;;;;;;;15.67;72.76;97293.68;224355;1284;23027;-87
2023/10/31 09:33:11;;;;;;;5.90;2.80;;;;;;;15.66;73.20;97306.77;224394;1287;22552;-85
2023/10/31 09:38:17;;;;;;;4.60;3.20;;;;;;;15.73;73.53;97304.42;224322;1286;24227;-82
2023/10/31 09:43:20;;;;;;;6.00;3.20;;;;;;;15.83;73.69;97307.48;224302;1286;22558;-80
2023/10/31 09:48:27;;;;;;;3.30;2.80;;;;;;;15.95;73.61;97304.65;224335;1285;22569;-82
2023/10/31 09:53:32;;;;;;;8.50;3.00;;;;;;;16.01;73.40;97308.91;224224;1292;22563;-84
2023/10/31 09:58:39;;;;;;;4.60;2.80;;;;;;;16.04;73.42;97323.93;224433;1292;23097;-83
2023/10/31 10:04:04;;;;;;;4.40;3.10;;;;;;;16.14;73.57;97318.52;224484;1286;22567;-82
2023/10/31 10:09:08;;;;;;;3.90;2.50;;;;;;;16.26;73.28;97332.90;224289;1285;22644;-83
2023/10/31 10:14:12;;;;;;;3.50;2.70;;;;;;;16.30;73.17;97321.30;224644;1287;25309;-84
2023/10/31 10:19:35;;;;;;;3.70;2.20;;;;;;;16.36;73.24;97316.25;224279;1292;24212;-83
2023/10/31 10:24:45;;;;;;;4.80;2.50;;;;;;;16.45;73.12;97309.09;224484;1288;22595;-82
2023/10/31 10:29:54;;;;;;;3.50;2.00;;;;;;;16.55;73.02;97299.46;224411;1273;23203;-86
2023/10/31 10:34:58;;;;;;;3.20;1.80;;;;;;;16.71;72.98;97301.14;224061;1292;24260;-84
2023/10/31 10:40:15;;;;;;;4.10;2.40;;;;;;;16.86;72.22;97315.42;224419;1290;22562;-84
2023/10/31 10:45:21;;;;;;;2.00;1.50;;;;;;;16.86;72.03;97320.70;224434;1290;22564;-85
2023/10/31 10:50:30;;;;;;;1.90;1.60;;;;;;;16.82;71.71;97310.91;224232;1280;22511;-84
2023/10/31 10:56:03;;;;;;;2.60;1.80;;;;;;;16.85;71.78;97306.83;224547;1290;22563;-84
2023/10/31 11:01:29;;;;;;;3.00;1.80;;;;;;;16.82;71.82;97313.80;224553;1292;22628;-84
2023/10/31 11:06:54;;;;;;;2.50;1.90;;;;;;;16.75;71.98;97318.16;224422;1292;22598;-84
2023/10/31 11:11:58;;;;;;;3.70;1.80;;;;;;;16.72;72.12;97328.24;224169;1289;24347;-82
2023/10/31 11:17:09;;;;;;;3.10;2.00;;;;;;;16.66;71.88;97332.11;224203;1292;22577;-83
2023/10/31 11:22:17;;;;;;;4.50;1.90;;;;;;;16.61;72.35;97337.09;224061;1287;22581;-82
2023/10/31 11:27:19;;;;;;;2.80;2.10;;;;;;;16.54;72.37;97330.39;224221;1287;22560;-81
2023/10/31 11:32:22;;;;;;;1.80;1.60;;;;;;;16.54;72.68;97322.88;224173;1291;22559;-81
2023/10/31 11:37:31;;;;;;;2.70;1.60;;;;;;;16.65;72.49;97324.64;224177;1275;22555;-83
2023/10/31 11:42:36;;;;;;;2.30;1.70;;;;;;;16.78;72.35;97326.50;223958;1280;22555;-83
2023/10/31 11:47:49;;;;;;;4.30;1.60;;;;;;;16.92;72.22;97324.13;224007;1292;22587;-80
2023/10/31 11:53:13;;;;;;;5.40;2.00;;;;;;;17.00;72.03;97322.05;224182;1289;22575;-81
2023/10/31 11:58:37;;;;;;;2.10;1.60;;;;;;;16.93;71.90;97323.01;224085;1289;25288;-79
2023/10/31 12:03:54;;;;;;;2.20;1.50;;;;;;;16.76;71.85;97319.87;224266;1292;22545;-80
2023/10/31 12:09:02;;;;;;;2.40;1.20;;;;;;;16.54;72.19;97308.59;224364;1289;22671;-80
2023/10/31 12:14:09;;;;;;;4.50;1.60;;;;;;;16.37;72.58;97300.48;224349;1292;24254;-80
2023/10/31 12:19:12;;;;;;;3.70;1.80;;;;;;;16.29;72.86;97291.55;224126;1292;23277;-81
2023/10/31 12:24:21;;;;;;;2.70;1.90;;;;;;;16.24;72.93;97275.38;223936;1292;22546;-80
2023/10/31 12:29:41;;;;;;;2.30;1.60;;;;;;;16.16;72.84;97268.90;223202;1296;22558;-81
2023/10/31 12:34:44;;;;;;;2.40;1.60;;;;;;;16.14;73.04;97246.52;223574;1292;22578;-83
2023/10/31 12:39:50;;;;;;;3.00;1.70;;;;;;;16.20;73.28;97270.28;223813;1295;22573;-81
2023/10/31 12:44:56;;;;;;;2.60;1.90;;;;;;;16.13;73.11;97277.84;223706;1293;25307;-81
2023/10/31 12:50:18;;;;;;;4.00;3.00;;;;;;;15.96;73.31;97274.40;223473;1295;22548;-80
2023/10/31 12:55:26;;;;;;;4.60;2.40;;;;;;;15.82;73.62;97283.66;224063;1292;22563;-81
2023/10/31 13:00:34;;;;;;;1.60;1.50;;;;;;;15.71;73.85;97277.63;224192;1292;22552;-81
2023/10/31 13:05:40;;;;;;;2.60;1.80;;;;;;;15.60;73.96;97298.70;224272;1292;22555;-82
2023/10/31 13:10:43;;;;;;;5.20;3.80;;;;;;;15.54;74.48;97317.16;224250;1292;26175;-81
2023/10/31 13:15:46;;;;;;;5.10;3.20;;;;;;;15.49;74.85;97320.58;224215;1291;22655;-82
2023/10/31 13:21:10;;;;;;;5.00;3.00;;;;;;;15.39;75.12;97330.57;224383;1291;22593;-82
2023/10/31 13:26:17;;;;;;;8.30;4.30;;;;;;;15.30;75.49;97341.87;224421;1291;22598;-82
2023/10/31 13:31:25;;;;;;;4.00;3.20;;;;;;;15.22;75.89;97346.48;224389;1274;22591;-82
2023/10/31 13:36:27;;;;;;;3.40;2.70;;;;;;;15.14;76.22;97350.20;224362;1290;22712;-81
2023/10/31 13:41:30;;;;;;;4.40;2.40;;;;;;;15.03;76.41;97351.36;224146;1279;24241;-81
2023/10/31 13:46:48;;;;;;;3.90;2.80;;;;;;;14.89;77.10;97341.23;220262;1292;5400956;-80
2023/10/31 13:51:50;;;;;;;4.80;2.60;;;;;;;14.73;77.28;97325.38;224176;1289;25303;-79
2023/10/31 13:56:55;;;;;;;3.50;2.60;;;;;;;14.64;77.84;97330.49;224176;1290;22510;-78
2023/10/31 14:01:57;;;;;;;3.40;2.50;;;;;;;14.48;78.39;97345.50;224173;1292;22548;-78
2023/10/31 14:07:00;;;;;;;3.50;2.50;;;;;;;14.26;78.72;97355.41;224104;1283;23024;-78
2023/10/31 14:12:03;;;;;;;5.40;2.80;;;;;;;14.05;79.78;97363.79;224016;1291;22599;-77
2023/10/31 14:17:06;;;;;;;10.30;7.30;;;;;;;13.85;80.62;97376.84;224240;1286;22555;-79
2023/10/31 14:22:13;;;;;;;8.10;6.20;;;;;;;13.70;80.96;97387.76;224145;1271;22563;-78
2023/10/31 14:27:16;;;;;;;7.60;5.20;;;;;;;13.56;81.73;97391.79;224005;1276;23179;-79
2023/10/31 14:32:18;;;;;;;4.60;3.50;;;;;;;13.43;82.34;97390.77;223980;1273;22574;-78
2023/10/31 14:37:21;;;;;;;6.40;4.10;;;;;;;13.34;82.70;97389.52;223923;1275;22543;-79
2023/10/31 14:42:24;;;;;;;5.30;3.50;;;;;;;13.25;83.15;97383.23;224046;1286;22945;-79
2023/10/31 14:47:27;;;;;;;5.90;3.20;;;;;;;13.18;83.31;97377.00;224020;1276;22605;-80
2023/10/31 14:52:29;;;;;;;3.20;2.50;;;;;;;13.10;83.03;97389.05;224048;1269;22556;-80
2023/10/31 14:57:33;;;;;;;2.70;2.00;;;;;;;13.01;83.04;97383.91;224015;1268;22688;-78
2023/10/31 15:02:35;;;;;;;3.60;2.50;;;;;;;12.91;82.83;97383.46;223715;1289;22568;-82
2023/10/31 15:07:47;;;;;;;3.40;2.40;;;;;;;12.82;83.14;97391.34;223454;1289;25313;-79
2023/10/31 15:12:57;;;;;;;4.30;3.30;;;;;;;12.74;83.05;97395.30;223841;1286;24240;-82
2023/10/31 15:18:01;;;;;;;2.90;2.60;;;;;;;12.67;83.17;97401.98;223584;1292;22582;-78
2023/10/31 15:23:03;;;;;;;3.40;2.50;;;;;;;12.60;83.41;97410.63;223590;1292;22685;-81
2023/10/31 15:28:07;;;;;;;3.90;2.50;;;;;;;12.44;83.77;97414.02;223864;1292;22571;-80
2023/10/31 15:33:10;;;;;;;2.10;1.90;;;;;;;12.32;84.04;97407.58;224669;1289;22564;-80
2023/10/31 15:38:15;;;;;;;5.00;2.80;;;;;;;12.30;84.30;97410.45;224396;1290;24856;-82
2023/10/31 15:43:18;;;;;;;5.30;3.60;;;;;;;12.30;84.48;97404.05;224487;1287;22607;-82
2023/10/31 15:48:21;;;;;;;7.20;5.50;;;;;;;12.30;84.50;97404.68;224374;1292;22563;-82
2023/10/31 15:53:28;;;;;;;7.00;4.20;;;;;;;12.28;84.66;97411.69;224438;1292;22499;-82
2023/10/31 15:58:32;;;;;;;6.70;5.10;;;;;;;12.23;84.60;97418.70;224499;1289;22550;-81
2023/10/31 16:03:35;;;;;;;6.30;4.80;;;;;;;12.19;84.94;97415.02;224406;1292;22594;-82
2023/10/31 16:08:42;;;;;;;5.60;4.00;;;;;;;12.15;85.13;97433.73;224264;1292;22573;-83
2023/10/31 16:13:44;;;;;;;4.20;3.80;;;;;;;12.07;85.33;97430.68;224280;1292;22578;-82
2023/10/31 16:18:56;;;;;;;7.40;3.90;;;;;;;12.00;85.45;97435.95;224373;1292;23133;-81
2023/10/31 16:24:07;;;;;;;4.10;3.60;;;;;;;11.97;85.74;97439.41;224511;1285;22576;-82
2023/10/31 16:29:13;;;;;;;4.90;3.60;;;;;;;11.95;85.81;97450.60;224431;1292;22565;-81
2023/10/31 16:34:19;;;;;;;6.40;4.70;;;;;;;11.91;85.90;97450.98;224389;1292;22566;-82
2023/10/31 16:39:22;;;;;;;6.20;5.20;;;;;;;11.89;86.11;97468.77;224531;1289;22572;-83
2023/10/31 16:44:25;;;;;;;7.40;5.40;;;;;;;11.89;86.22;97483.30;224394;1292;22581;-81
2023/10/31 16:49:27;;;;;;;6.20;5.00;;;;;;;11.89;86.33;97497.48;224418;1292;22668;-80
2023/10/31 16:54:31;;;;;;;7.20;5.40;;;;;;;11.86;86.54;97517.29;224528;1286;22709;-80
2023/10/31 16:59:33;;;;;;;6.60;5.80;;;;;;;11.78;86.71;97540.03;224572;1285;22576;-79
2023/10/31 17:04:36;;;;;;;8.70;6.00;;;;;;;11.68;87.03;97566.33;224443;1292;22726;-81
2023/10/31 17:09:39;;;;;;;10.20;5.80;;;;;;;11.60;87.25;97582.82;224485;1290;22551;-83
2023/10/31 17:14:42;;;;;;;7.30;6.40;;;;;;;11.53;87.77;97598.52;224301;1292;22546;-81
2023/10/31 17:19:48;;;;;;;10.70;7.90;;;;;;;11.48;87.76;97611.34;224317;1289;23350;-82
2023/10/31 17:24:52;;;;;;;11.30;8.50;;;;;;;11.44;87.96;97620.80;224557;1290;22558;-81
2023/10/31 17:29:57;;;;;;;11.10;9.00;;;;;;;11.39;88.05;97636.00;224496;1292;24240;-81
2023/10/31 17:35:02;;;;;;;9.30;7.90;;;;;;;11.33;88.14;97643.91;224391;1292;23159;-82
2023/10/31 17:40:09;;;;;;;9.50;7.60;;;;;;;11.29;88.02;97651.73;224415;1292;22586;-81
2023/10/31 17:45:12;;;;;;;10.00;7.80;;;;;;;11.25;87.77;97650.40;224428;1292;22568;-81
2023/10/31 17:50:15;;;;;;;9.00;7.90;;;;;;;11.21;87.73;97662.76;224469;1292;22597;-80
2023/10/31 17:55:21;;;;;;;11.70;8.60;;;;;;;11.14;87.65;97673.77;224474;1292;22559;-80
2023/10/31 18:00:24;;;;;;;9.00;7.80;;;;;;;11.08;87.77;97687.58;224457;1289;22556;-84
2023/10/31 18:05:30;;;;;;;9.20;6.90;;;;;;;10.96;87.68;97692.24;224293;1292;22664;-81
2023/10/31 18:10:34;;;;;;;6.80;5.20;;;;;;;10.83;87.65;97696.16;224558;1292;22612;-79
2023/10/31 18:15:36;;;;;;;5.20;3.90;;;;;;;10.70;87.62;97698.31;224488;1290;22564;-80
2023/10/31 18:20:39;;;;;;;5.10;4.00;;;;;;;10.57;87.66;97704.30;224470;1289;22570;-82
2023/10/31 18:25:41;;;;;;;5.30;3.80;;;;;;;10.49;87.73;97707.57;224471;1292;22558;-81
2023/10/31 18:30:43;;;;;;;5.50;3.40;;;;;;;10.44;87.65;97715.67;224453;1291;22557;-82
2023/10/31 18:35:46;;;;;;;3.90;3.50;;;;;;;10.38;87.62;97721.32;224577;1292;22571;-81
2023/10/31 18:40:48;;;;;;;5.20;3.70;;;;;;;10.34;87.50;97730.02;224420;1292;22559;-82
2023/10/31 18:45:50;;;;;;;5.70;4.00;;;;;;;10.31;87.46;97736.27;224567;1292;23300;-81
2023/10/31 18:50:53;;;;;;;3.90;3.20;;;;;;;10.26;87.51;97732.19;224541;1287;22569;-81
2023/10/31 18:55:57;;;;;;;4.30;3.10;;;;;;;10.23;87.50;97726.26;224361;1286;22566;-82
2023/10/31 19:00:59;;;;;;;3.40;3.10;;;;;;;10.20;87.44;97736.14;224496;1274;22552;-81
2023/10/31 19:06:12;;;;;;;5.60;3.90;;;;;;;10.16;87.42;97740.79;224561;1289;22582;-81
2023/10/31 19:11:15;;;;;;;6.40;4.60;;;;;;;10.08;87.52;97751.02;224574;1289;22565;-79
2023/10/31 19:16:19;;;;;;;4.50;3.80;;;;;;;10.01;87.58;97747.80;224464;1291;24292;-81
2023/10/31 19:21:24;;;;;;;5.20;4.50;;;;;;;9.97;87.79;97745.86;224478;1287;22581;-82
2023/10/31 19:26:26;;;;;;;5.80;5.10;;;;;;;9.91;87.91;97750.25;224439;1292;22577;-81
2023/10/31 19:31:29;;;;;;;5.30;4.30;;;;;;;9.82;88.68;97761.58;224451;1292;23049;-81
2023/10/31 19:36:35;;;;;;;6.10;4.00;;;;;;;9.78;88.91;97766.52;224566;1286;25456;-81
2023/10/31 19:41:40;;;;;;;9.00;4.80;;;;;;;9.76;88.63;97776.72;224500;1292;22572;-82
2023/10/31 19:46:42;;;;;;;6.90;4.90;;;;;;;9.73;88.72;97779.43;224419;1292;22556;-80
2023/10/31 19:51:48;;;;;;;6.70;4.80;;;;;;;9.70;88.69;97788.57;224552;1289;22559;-80
2023/10/31 19:56:51;;;;;;;6.90;4.90;;;;;;;9.69;88.77;97790.15;224470;1286;22572;-81
2023/10/31 20:01:55;;;;;;;5.40;4.40;;;;;;;9.68;88.80;97790.84;224436;1289;22588;-81
2023/10/31 20:06:58;;;;;;;5.70;4.30;;;;;;;9.64;88.80;97791.52;224454;1291;22555;-81
2023/10/31 20:12:02;;;;;;;6.40;4.60;;;;;;;9.63;88.99;97804.05;224321;1292;22576;-82
2023/10/31 20:17:06;;;;;;;5.20;4.30;;;;;;;9.60;89.28;97810.34;224154;1289;22586;-82
2023/10/31 20:22:12;;;;;;;4.80;4.20;;;;;;;9.58;89.19;97815.90;224480;1292;24266;-80
2023/10/31 20:27:17;;;;;;;5.30;4.40;;;;;;;9.57;89.45;97817.23;224361;1288;22555;-81
2023/10/31 20:32:26;;;;;;;5.50;4.20;;;;;;;9.60;89.52;97820.77;224349;1292;23713;-80
2023/10/31 20:37:29;;;;;;;8.50;4.40;;;;;;;9.59;89.60;97819.64;224598;1292;22563;-82
2023/10/31 20:42:33;;;;;;;7.50;4.80;;;;;;;9.59;89.55;97826.01;224345;1292;22559;-80
2023/10/31 20:47:37;;;;;;;7.60;5.00;;;;;;;9.58;89.58;97826.05;224466;1292;25709;-81
2023/10/31 20:52:51;;;;;;;6.70;5.40;;;;;;;9.58;89.78;97834.48;224425;1292;22557;-81
2023/10/31 20:57:54;;;;;;;7.70;6.00;;;;;;;9.60;89.91;97845.20;224501;1286;22566;-79
2023/10/31 21:03:03;;;;;;;9.10;5.70;;;;;;;9.61;89.87;97849.22;224323;1292;22637;-80
2023/10/31 21:08:07;;;;;;;;;;;;;;;9.60;90.00;97855.91;224517;1286;22534;-82
2023/10/31 21:13:12;;;;;;;6.70;5.90;;;;;;;9.58;89.97;97862.96;224584;1289;26072;-81
2023/10/31 21:18:15;;;;;;;5.80;4.80;;;;;;;9.57;90.02;97860.57;224556;1286;22555;-80
2023/10/31 21:23:17;;;;;;;6.00;5.30;;;;;;;9.55;90.30;97861.41;224449;1292;22562;-81
2023/10/31 21:28:22;;;;;;;6.10;4.80;;;;;;;9.55;90.40;97859.30;224468;1292;22579;-80
2023/10/31 21:33:24;;;;;;;6.40;5.20;;;;;;;9.54;90.31;97868.60;224606;1289;22577;-81
2023/10/31 21:38:28;;;;;;;5.80;4.70;;;;;;;9.53;90.32;97870.55;224598;1286;22563;-81
2023/10/31 21:43:32;;;;;;;6.30;5.10;;;;;;;9.52;90.24;97866.77;224471;1286;22558;-79
2023/10/31 21:48:34;;;;;;;6.40;5.60;;;;;;;9.51;90.21;97873.86;224354;1292;24216;-81
2023/10/31 21:53:37;;;;;;;7.60;5.50;;;;;;;9.51;90.45;97880.80;224568;1289;22675;-80
2023/10/31 21:58:39;;;;;;;7.30;5.50;;;;;;;9.50;90.30;97890.39;224465;1276;22566;-78
2023/10/31 22:03:51;;;;;;;6.10;5.40;;;;;;;9.49;90.23;97889.62;224572;1286;22581;-80
2023/10/31 22:08:55;;;;;;;6.10;5.50;;;;;;;9.46;90.19;97900.41;224495;1279;22544;-80
2023/10/31 22:13:58;;;;;;;6.00;5.40;;;;;;;9.45;90.39;97900.53;224489;1292;22540;-81
2023/10/31 22:19:12;;;;;;;7.20;5.80;;;;;;;9.45;90.25;97909.50;224382;1292;22576;-81
2023/10/31 22:24:17;;;;;;;7.40;5.60;;;;;;;9.48;90.15;97919.73;224515;1286;22574;-79
2023/10/31 22:29:20;;;;;;;6.90;6.20;;;;;;;9.50;90.13;97924.70;224508;1286;22554;-80
2023/10/31 22:34:22;;;;;;;6.90;6.10;;;;;;;9.50;90.21;97927.29;224401;1292;22559;-79
2023/10/31 22:39:26;;;;;;;7.40;6.60;;;;;;;9.48;90.01;97925.44;224476;1292;22487;-82
2023/10/31 22:44:28;;;;;;;9.00;6.70;;;;;;;9.45;89.75;97933.46;224457;1289;22556;-81
2023/10/31 22:49:32;;;;;;;7.30;5.80;;;;;;;9.42;90.05;97938.94;224458;1292;22567;-81
2023/10/31 22:54:34;;;;;;;7.50;6.70;;;;;;;9.40;90.13;97942.14;224455;1292;22566;-81
2023/10/31 22:59:37;;;;;;;6.50;5.70;;;;;;;9.39;90.01;97943.34;224491;1291;22559;-80
2023/10/31 23:04:41;;;;;;;8.40;7.10;;;;;;;9.39;90.03;97944.40;224478;1292;22564;-81
2023/10/31 23:09:44;;;;;;;6.60;5.60;;;;;;;9.40;90.09;97950.69;224514;1292;22552;-81
2023/10/31 23:14:46;;;;;;;6.90;6.00;;;;;;;9.41;90.18;97954.88;224515;1286;25917;-81
2023/10/31 23:19:52;;;;;;;6.50;5.90;;;;;;;9.39;90.26;97962.69;224497;1292;22558;-81
2023/10/31 23:24:56;;;;;;;6.70;6.00;;;;;;;9.38;90.29;97972.02;224483;1292;22697;-81
2023/10/31 23:30:09;;;;;;;;;;;;;;;;;;;;;
2023/10/31 23:35:50;;;;;;;6.90;6.20;;;;;;;9.36;90.40;97987.99;224494;1286;22556;-81
2023/10/31 23:40:51;;;;;;;6.20;5.60;;;;;;;9.37;90.22;97995.13;224499;1292;22668;-81
2023/10/31 23:45:54;;;;;;;6.10;5.50;;;;;;;9.36;90.41;97999.18;224551;1286;25352;-80
2023/10/31 23:50:57;;;;;;;6.50;5.90;;;;;;;9.32;90.38;98005.11;224499;1292;22599;-81
2023/10/31 23:56:00;;;;;;;7.10;6.10;;;;;;;9.29;90.54;98012.16;224653;1292;25374;-80
